sensor_id;sensor_type;location;lat;lon;timestamp;pressure;altitude;pressure_sealevel;temperature;humidity
71573;BME280;59408;51.032;9.410;2024-01-27T00:01:13;100607.53;;;1.66;87.84
71573;BME280;59408;51.032;9.410;2024-01-27T00:03:40;100606.41;;;1.62;87.78
71573;BME280;59408;51.032;9.410;2024-01-27T00:06:07;100607.75;;;1.64;88.03
71573;BME280;59408;51.032;9.410;2024-01-27T00:08:34;100605.34;;;1.63;88.20
71573;BME280;59408;51.032;9.410;2024-01-27T00:11:00;100609.31;;;1.60;88.39
71573;BME280;59408;51.032;9.410;2024-01-27T00:13:27;100617.97;;;1.62;88.32
71573;BME280;59408;51.032;9.410;2024-01-27T00:15:54;100609.75;;;1.69;87.99
71573;BME280;59408;51.032;9.410;2024-01-27T00:18:20;100619.69;;;1.69;87.80
71573;BME280;59408;51.032;9.410;2024-01-27T00:20:47;100619.41;;;1.82;87.19
71573;BME280;59408;51.032;9.410;2024-01-27T00:23:15;100616.75;;;1.70;88.00
71573;BME280;59408;51.032;9.410;2024-01-27T00:25:41;100622.38;;;1.69;87.91
71573;BME280;59408;51.032;9.410;2024-01-27T00:28:07;100619.91;;;1.67;88.21
71573;BME280;59408;51.032;9.410;2024-01-27T00:30:34;100624.63;;;1.60;89.07
71573;BME280;59408;51.032;9.410;2024-01-27T00:33:01;100632.13;;;1.58;89.06
71573;BME280;59408;51.032;9.410;2024-01-27T00:35:27;100624.22;;;1.51;89.71
71573;BME280;59408;51.032;9.410;2024-01-27T00:37:54;100616.13;;;1.51;89.65
71573;BME280;59408;51.032;9.410;2024-01-27T00:40:21;100625.72;;;1.47;89.95
71573;BME280;59408;51.032;9.410;2024-01-27T00:42:48;100624.63;;;1.60;89.34
71573;BME280;59408;51.032;9.410;2024-01-27T00:45:14;100638.22;;;1.53;89.91
71573;BME280;59408;51.032;9.410;2024-01-27T00:47:41;100635.94;;;1.45;90.43
71573;BME280;59408;51.032;9.410;2024-01-27T00:50:08;100645.97;;;1.38;91.30
71573;BME280;59408;51.032;9.410;2024-01-27T00:52:35;100640.75;;;1.32;92.02
71573;BME280;59408;51.032;9.410;2024-01-27T00:55:01;100655.75;;;1.16;93.31
71573;BME280;59408;51.032;9.410;2024-01-27T00:57:29;100660.31;;;1.04;94.50
71573;BME280;59408;51.032;9.410;2024-01-27T00:59:55;100657.19;;;0.95;95.46
71573;BME280;59408;51.032;9.410;2024-01-27T01:02:22;100654.72;;;0.94;95.75
71573;BME280;59408;51.032;9.410;2024-01-27T01:04:54;100655.56;;;0.82;96.85
71573;BME280;59408;51.032;9.410;2024-01-27T01:07:21;100665.75;;;0.80;97.30
71573;BME280;59408;51.032;9.410;2024-01-27T01:09:47;100663.97;;;0.74;97.60
71573;BME280;59408;51.032;9.410;2024-01-27T01:12:14;100665.28;;;0.72;98.13
71573;BME280;59408;51.032;9.410;2024-01-27T01:14:41;100676.84;;;0.72;98.18
71573;BME280;59408;51.032;9.410;2024-01-27T01:17:08;100676.47;;;0.69;98.39
71573;BME280;59408;51.032;9.410;2024-01-27T01:19:36;100677.16;;;0.64;98.55
71573;BME280;59408;51.032;9.410;2024-01-27T01:22:02;100682.78;;;0.63;98.79
71573;BME280;59408;51.032;9.410;2024-01-27T01:24:29;100688.63;;;0.60;99.31
71573;BME280;59408;51.032;9.410;2024-01-27T01:26:56;100686.06;;;0.53;99.51
71573;BME280;59408;51.032;9.410;2024-01-27T01:29:23;100696.78;;;0.53;99.71
71573;BME280;59408;51.032;9.410;2024-01-27T01:31:50;100693.63;;;0.44;100.00
71573;BME280;59408;51.032;9.410;2024-01-27T01:34:17;100698.19;;;0.44;100.00
71573;BME280;59408;51.032;9.410;2024-01-27T01:36:44;100699.78;;;0.33;100.00
71573;BME280;59408;51.032;9.410;2024-01-27T01:39:11;100701.28;;;0.29;100.00
71573;BME280;59408;51.032;9.410;2024-01-27T01:41:40;100705.94;;;0.22;100.00
71573;BME280;59408;51.032;9.410;2024-01-27T01:44:07;100710.38;;;0.17;100.00
71573;BME280;59408;51.032;9.410;2024-01-27T01:46:33;100713.63;;;0.19;100.00
71573;BME280;59408;51.032;9.410;2024-01-27T01:49:02;100715.97;;;0.15;100.00
71573;BME280;59408;51.032;9.410;2024-01-27T01:51:29;100704.63;;;0.13;100.00
71573;BME280;59408;51.032;9.410;2024-01-27T01:53:57;100704.97;;;0.05;100.00
71573;BME280;59408;51.032;9.410;2024-01-27T01:56:24;100709.50;;;0.04;100.00
71573;BME280;59408;51.032;9.410;2024-01-27T01:58:50;100713.47;;;0.02;100.00
71573;BME280;59408;51.032;9.410;2024-01-27T02:01:17;100714.16;;;-0.03;100.00
71573;BME280;59408;51.032;9.410;2024-01-27T02:03:51;100720.94;;;-0.00;100.00
71573;BME280;59408;51.032;9.410;2024-01-27T02:06:19;100714.59;;;-0.06;100.00
71573;BME280;59408;51.032;9.410;2024-01-27T02:08:46;100711.31;;;-0.08;100.00
71573;BME280;59408;51.032;9.410;2024-01-27T02:11:13;100716.94;;;-0.09;100.00
71573;BME280;59408;51.032;9.410;2024-01-27T02:13:39;100711.19;;;-0.13;100.00
71573;BME280;59408;51.032;9.410;2024-01-27T02:16:06;100714.53;;;-0.17;100.00
71573;BME280;59408;51.032;9.410;2024-01-27T02:18:32;100715.84;;;-0.20;100.00
71573;BME280;59408;51.032;9.410;2024-01-27T02:20:59;100718.97;;;-0.23;100.00
71573;BME280;59408;51.032;9.410;2024-01-27T02:23:27;100725.53;;;-0.19;100.00
71573;BME280;59408;51.032;9.410;2024-01-27T02:25:55;100727.13;;;-0.18;100.00
71573;BME280;59408;51.032;9.410;2024-01-27T02:28:24;100741.38;;;-0.17;100.00
71573;BME280;59408;51.032;9.410;2024-01-27T02:30:51;100738.25;;;-0.14;100.00
71573;BME280;59408;51.032;9.410;2024-01-27T02:33:17;100732.44;;;-0.11;100.00
71573;BME280;59408;51.032;9.410;2024-01-27T02:35:44;100726.69;;;-0.15;100.00
71573;BME280;59408;51.032;9.410;2024-01-27T02:38:10;100736.97;;;-0.12;100.00
71573;BME280;59408;51.032;9.410;2024-01-27T02:40:37;100732.44;;;-0.11;100.00
71573;BME280;59408;51.032;9.410;2024-01-27T02:43:05;100723.56;;;-0.12;100.00
71573;BME280;59408;51.032;9.410;2024-01-27T02:45:31;100727.06;;;-0.11;100.00
71573;BME280;59408;51.032;9.410;2024-01-27T02:47:58;100726.25;;;-0.12;100.00
71573;BME280;59408;51.032;9.410;2024-01-27T02:50:25;100715.75;;;-0.13;100.00
71573;BME280;59408;51.032;9.410;2024-01-27T02:52:51;100719.09;;;-0.18;100.00
71573;BME280;59408;51.032;9.410;2024-01-27T02:55:18;100714.66;;;-0.24;100.00
71573;BME280;59408;51.032;9.410;2024-01-27T02:57:44;100714.03;;;-0.26;100.00
71573;BME280;59408;51.032;9.410;2024-01-27T03:00:12;100718.25;;;-0.30;100.00
71573;BME280;59408;51.032;9.410;2024-01-27T03:02:39;100718.59;;;-0.27;100.00
71573;BME280;59408;51.032;9.410;2024-01-27T03:05:06;100724.34;;;-0.23;100.00
71573;BME280;59408;51.032;9.410;2024-01-27T03:07:33;100728.22;;;-0.19;100.00
71573;BME280;59408;51.032;9.410;2024-01-27T03:09:59;100736.69;;;-0.22;100.00
71573;BME280;59408;51.032;9.410;2024-01-27T03:12:26;100730.28;;;-0.21;100.00
71573;BME280;59408;51.032;9.410;2024-01-27T03:14:52;100729.47;;;-0.21;100.00
71573;BME280;59408;51.032;9.410;2024-01-27T03:17:20;100733.31;;;-0.17;100.00
71573;BME280;59408;51.032;9.410;2024-01-27T03:19:46;100725.28;;;-0.17;100.00
71573;BME280;59408;51.032;9.410;2024-01-27T03:22:15;100725.88;;;-0.15;100.00
71573;BME280;59408;51.032;9.410;2024-01-27T03:24:41;100727.94;;;-0.17;100.00
71573;BME280;59408;51.032;9.410;2024-01-27T03:27:08;100731.25;;;-0.15;100.00
71573;BME280;59408;51.032;9.410;2024-01-27T03:29:34;100726.47;;;-0.13;100.00
71573;BME280;59408;51.032;9.410;2024-01-27T03:32:01;100734.50;;;-0.13;100.00
71573;BME280;59408;51.032;9.410;2024-01-27T03:34:28;100730.56;;;-0.11;100.00
71573;BME280;59408;51.032;9.410;2024-01-27T03:36:55;100729.97;;;-0.13;100.00
71573;BME280;59408;51.032;9.410;2024-01-27T03:39:22;100731.00;;;-0.14;100.00
71573;BME280;59408;51.032;9.410;2024-01-27T03:41:48;100729.88;;;-0.06;100.00
71573;BME280;59408;51.032;9.410;2024-01-27T03:44:15;100735.41;;;-0.01;100.00
71573;BME280;59408;51.032;9.410;2024-01-27T03:46:41;100731.41;;;0.01;100.00
71573;BME280;59408;51.032;9.410;2024-01-27T03:49:08;100731.56;;;0.06;100.00
71573;BME280;59408;51.032;9.410;2024-01-27T03:51:36;100735.28;;;0.05;100.00
71573;BME280;59408;51.032;9.410;2024-01-27T03:54:02;100741.69;;;0.04;100.00
71573;BME280;59408;51.032;9.410;2024-01-27T03:56:29;100744.75;;;0.08;100.00
71573;BME280;59408;51.032;9.410;2024-01-27T03:58:55;100731.91;;;0.10;100.00
71573;BME280;59408;51.032;9.410;2024-01-27T04:01:22;100748.59;;;0.12;100.00
71573;BME280;59408;51.032;9.410;2024-01-27T04:03:48;100740.56;;;0.12;100.00
71573;BME280;59408;51.032;9.410;2024-01-27T04:06:15;100743.47;;;0.10;100.00
71573;BME280;59408;51.032;9.410;2024-01-27T04:08:43;100751.88;;;0.14;100.00
71573;BME280;59408;51.032;9.410;2024-01-27T04:11:09;100748.38;;;0.13;100.00
71573;BME280;59408;51.032;9.410;2024-01-27T04:13:35;100748.97;;;0.16;100.00
71573;BME280;59408;51.032;9.410;2024-01-27T04:16:02;100752.25;;;0.18;100.00
71573;BME280;59408;51.032;9.410;2024-01-27T04:18:28;100757.84;;;0.16;100.00
71573;BME280;59408;51.032;9.410;2024-01-27T04:20:55;100754.13;;;0.17;100.00
71573;BME280;59408;51.032;9.410;2024-01-27T04:23:22;100764.84;;;0.17;100.00
71573;BME280;59408;51.032;9.410;2024-01-27T04:25:49;100763.66;;;0.13;100.00
71573;BME280;59408;51.032;9.410;2024-01-27T04:28:16;100759.72;;;0.16;100.00
71573;BME280;59408;51.032;9.410;2024-01-27T04:30:42;100765.53;;;0.12;100.00
71573;BME280;59408;51.032;9.410;2024-01-27T04:33:09;100763.06;;;0.11;100.00
71573;BME280;59408;51.032;9.410;2024-01-27T04:35:37;100769.47;;;0.10;100.00
71573;BME280;59408;51.032;9.410;2024-01-27T04:38:04;100769.47;;;0.10;100.00
71573;BME280;59408;51.032;9.410;2024-01-27T04:40:31;100769.72;;;0.08;100.00
71573;BME280;59408;51.032;9.410;2024-01-27T04:42:58;100760.47;;;0.04;100.00
71573;BME280;59408;51.032;9.410;2024-01-27T04:45:25;100767.31;;;0.00;100.00
71573;BME280;59408;51.032;9.410;2024-01-27T04:47:51;100769.22;;;-0.00;100.00
71573;BME280;59408;51.032;9.410;2024-01-27T04:50:18;100774.81;;;-0.02;100.00
71573;BME280;59408;51.032;9.410;2024-01-27T04:52:45;100770.47;;;-0.03;100.00
71573;BME280;59408;51.032;9.410;2024-01-27T04:55:12;100770.31;;;-0.08;100.00
71573;BME280;59408;51.032;9.410;2024-01-27T04:57:38;100775.78;;;-0.14;100.00
71573;BME280;59408;51.032;9.410;2024-01-27T05:00:08;100781.97;;;-0.14;100.00
71573;BME280;59408;51.032;9.410;2024-01-27T05:02:34;100782.06;;;-0.20;100.00
71573;BME280;59408;51.032;9.410;2024-01-27T05:05:01;100777.50;;;-0.20;100.00
71573;BME280;59408;51.032;9.410;2024-01-27T05:07:27;100774.31;;;-0.29;100.00
71573;BME280;59408;51.032;9.410;2024-01-27T05:09:54;100772.53;;;-0.35;100.00
71573;BME280;59408;51.032;9.410;2024-01-27T05:12:20;100771.13;;;-0.37;100.00
71573;BME280;59408;51.032;9.410;2024-01-27T05:14:47;100774.03;;;-0.39;100.00
71573;BME280;59408;51.032;9.410;2024-01-27T05:17:15;100779.59;;;-0.40;100.00
71573;BME280;59408;51.032;9.410;2024-01-27T05:19:41;100782.94;;;-0.45;100.00
71573;BME280;59408;51.032;9.410;2024-01-27T05:22:08;100787.66;;;-0.40;100.00
71573;BME280;59408;51.032;9.410;2024-01-27T05:24:34;100783.19;;;-0.46;100.00
71573;BME280;59408;51.032;9.410;2024-01-27T05:27:01;100786.22;;;-0.43;100.00
71573;BME280;59408;51.032;9.410;2024-01-27T05:29:27;100790.97;;;-0.45;100.00
71573;BME280;59408;51.032;9.410;2024-01-27T05:31:54;100790.97;;;-0.45;100.00
71573;BME280;59408;51.032;9.410;2024-01-27T05:34:22;100801.94;;;-0.46;100.00
71573;BME280;59408;51.032;9.410;2024-01-27T05:36:49;100809.19;;;-0.47;100.00
71573;BME280;59408;51.032;9.410;2024-01-27T05:39:15;100810.66;;;-0.51;100.00
71573;BME280;59408;51.032;9.410;2024-01-27T05:41:42;100815.63;;;-0.54;100.00
71573;BME280;59408;51.032;9.410;2024-01-27T05:44:08;100823.91;;;-0.56;100.00
71573;BME280;59408;51.032;9.410;2024-01-27T05:46:35;100822.03;;;-0.55;100.00
71573;BME280;59408;51.032;9.410;2024-01-27T05:49:01;100817.72;;;-0.56;100.00
71573;BME280;59408;51.032;9.410;2024-01-27T05:51:29;100825.81;;;-0.63;100.00
71573;BME280;59408;51.032;9.410;2024-01-27T05:53:56;100825.81;;;-0.63;100.00
71573;BME280;59408;51.032;9.410;2024-01-27T05:56:22;100826.69;;;-0.69;100.00
71573;BME280;59408;51.032;9.410;2024-01-27T05:58:49;100834.34;;;-0.73;100.00
71573;BME280;59408;51.032;9.410;2024-01-27T06:01:17;100840.78;;;-0.74;100.00
71573;BME280;59408;51.032;9.410;2024-01-27T06:03:44;100837.63;;;-0.71;100.00
71573;BME280;59408;51.032;9.410;2024-01-27T06:06:10;100841.63;;;-0.80;100.00
71573;BME280;59408;51.032;9.410;2024-01-27T06:08:38;100836.94;;;-0.84;100.00
71573;BME280;59408;51.032;9.410;2024-01-27T06:11:05;100850.34;;;-0.84;100.00
71573;BME280;59408;51.032;9.410;2024-01-27T06:13:35;100845.59;;;-0.82;100.00
71573;BME280;59408;51.032;9.410;2024-01-27T06:16:06;100849.88;;;-0.81;100.00
71573;BME280;59408;51.032;9.410;2024-01-27T06:18:32;100848.50;;;-0.84;100.00
71573;BME280;59408;51.032;9.410;2024-01-27T06:20:59;100849.94;;;-0.88;100.00
71573;BME280;59408;51.032;9.410;2024-01-27T06:23:26;100852.75;;;-1.01;100.00
71573;BME280;59408;51.032;9.410;2024-01-27T06:25:54;100857.56;;;-1.10;100.00
71573;BME280;59408;51.032;9.410;2024-01-27T06:28:20;100858.81;;;-1.12;100.00
71573;BME280;59408;51.032;9.410;2024-01-27T06:30:47;100865.47;;;-1.21;100.00
71573;BME280;59408;51.032;9.410;2024-01-27T06:33:13;100859.06;;;-1.20;100.00
71573;BME280;59408;51.032;9.410;2024-01-27T06:35:40;100863.41;;;-1.26;100.00
71573;BME280;59408;51.032;9.410;2024-01-27T06:38:06;100877.59;;;-1.19;100.00
71573;BME280;59408;51.032;9.410;2024-01-27T06:40:33;100870.16;;;-1.17;100.00
71573;BME280;59408;51.032;9.410;2024-01-27T06:43:01;100873.66;;;-1.16;100.00
71573;BME280;59408;51.032;9.410;2024-01-27T06:45:29;100870.00;;;-1.22;100.00
71573;BME280;59408;51.032;9.410;2024-01-27T06:47:56;100865.31;;;-1.33;100.00
71573;BME280;59408;51.032;9.410;2024-01-27T06:50:22;100868.63;;;-1.31;100.00
71573;BME280;59408;51.032;9.410;2024-01-27T06:52:49;100859.16;;;-1.33;100.00
71573;BME280;59408;51.032;9.410;2024-01-27T06:55:15;100873.56;;;-1.34;100.00
71573;BME280;59408;51.032;9.410;2024-01-27T06:57:42;100875.78;;;-1.25;100.00
71573;BME280;59408;51.032;9.410;2024-01-27T07:00:10;100886.81;;;-1.15;100.00
71573;BME280;59408;51.032;9.410;2024-01-27T07:02:37;100889.44;;;-1.08;100.00
71573;BME280;59408;51.032;9.410;2024-01-27T07:05:04;100893.34;;;-1.04;100.00
71573;BME280;59408;51.032;9.410;2024-01-27T07:07:31;100885.75;;;-1.07;100.00
71573;BME280;59408;51.032;9.410;2024-01-27T07:09:58;100883.50;;;-1.10;100.00
71573;BME280;59408;51.032;9.410;2024-01-27T07:12:24;100892.59;;;-1.18;100.00
71573;BME280;59408;51.032;9.410;2024-01-27T07:14:52;100885.06;;;-1.27;100.00
71573;BME280;59408;51.032;9.410;2024-01-27T07:17:24;100884.63;;;-1.24;100.00
71573;BME280;59408;51.032;9.410;2024-01-27T07:19:50;100895.81;;;-1.34;100.00
71573;BME280;59408;51.032;9.410;2024-01-27T07:22:17;100896.66;;;-1.40;100.00
71573;BME280;59408;51.032;9.410;2024-01-27T07:24:44;100914.19;;;-1.44;100.00
71573;BME280;59408;51.032;9.410;2024-01-27T07:27:12;100912.63;;;-1.27;100.00
71573;BME280;59408;51.032;9.410;2024-01-27T07:29:38;100906.69;;;-1.29;100.00
71573;BME280;59408;51.032;9.410;2024-01-27T07:32:05;100924.16;;;-1.20;100.00
71573;BME280;59408;51.032;9.410;2024-01-27T07:34:33;100921.47;;;-1.20;100.00
71573;BME280;59408;51.032;9.410;2024-01-27T07:36:59;100914.97;;;-1.06;100.00
71573;BME280;59408;51.032;9.410;2024-01-27T07:39:26;100923.41;;;-1.02;100.00
71573;BME280;59408;51.032;9.410;2024-01-27T07:41:52;100932.09;;;-1.07;100.00
71573;BME280;59408;51.032;9.410;2024-01-27T07:44:19;100931.47;;;-1.09;100.00
71573;BME280;59408;51.032;9.410;2024-01-27T07:46:45;100939.97;;;-1.12;100.00
71573;BME280;59408;51.032;9.410;2024-01-27T07:49:12;100947.53;;;-1.02;100.00
71573;BME280;59408;51.032;9.410;2024-01-27T07:51:40;100942.78;;;-1.00;100.00
71573;BME280;59408;51.032;9.410;2024-01-27T07:54:06;100942.88;;;-0.88;100.00
71573;BME280;59408;51.032;9.410;2024-01-27T07:56:33;100955.63;;;-0.84;100.00
71573;BME280;59408;51.032;9.410;2024-01-27T07:58:59;100946.72;;;-0.78;100.00
71573;BME280;59408;51.032;9.410;2024-01-27T08:01:26;100942.78;;;-0.75;100.00
71573;BME280;59408;51.032;9.410;2024-01-27T08:03:52;100945.84;;;-0.72;100.00
71573;BME280;59408;51.032;9.410;2024-01-27T08:06:27;100943.50;;;-0.62;100.00
71573;BME280;59408;51.032;9.410;2024-01-27T08:08:56;100944.25;;;-0.54;100.00
71573;BME280;59408;51.032;9.410;2024-01-27T08:11:22;100939.97;;;-0.55;100.00
71573;BME280;59408;51.032;9.410;2024-01-27T08:13:49;100948.75;;;-0.48;100.00
71573;BME280;59408;51.032;9.410;2024-01-27T08:16:15;100946.22;;;-0.43;100.00
71573;BME280;59408;51.032;9.410;2024-01-27T08:18:42;100951.78;;;-0.38;100.00
71573;BME280;59408;51.032;9.410;2024-01-27T08:21:09;100959.59;;;-0.37;100.00
71573;BME280;59408;51.032;9.410;2024-01-27T08:23:36;100950.88;;;-0.32;100.00
71573;BME280;59408;51.032;9.410;2024-01-27T08:26:04;100958.66;;;-0.24;100.00
71573;BME280;59408;51.032;9.410;2024-01-27T08:28:30;100966.41;;;-0.16;100.00
71573;BME280;59408;51.032;9.410;2024-01-27T08:30:57;100961.22;;;-0.11;100.00
71573;BME280;59408;51.032;9.410;2024-01-27T08:33:23;100972.09;;;-0.06;100.00
71573;BME280;59408;51.032;9.410;2024-01-27T08:35:50;100977.38;;;0.01;100.00
71573;BME280;59408;51.032;9.410;2024-01-27T08:38:16;100972.53;;;0.09;100.00
71573;BME280;59408;51.032;9.410;2024-01-27T08:40:43;100976.66;;;0.12;100.00
71573;BME280;59408;51.032;9.410;2024-01-27T08:43:11;100973.53;;;0.15;100.00
71573;BME280;59408;51.032;9.410;2024-01-27T08:45:38;100976.34;;;0.20;100.00
71573;BME280;59408;51.032;9.410;2024-01-27T08:48:05;100987.25;;;0.25;100.00
71573;BME280;59408;51.032;9.410;2024-01-27T08:50:33;100983.75;;;0.25;100.00
71573;BME280;59408;51.032;9.410;2024-01-27T08:52:59;100977.47;;;0.31;100.00
71573;BME280;59408;51.032;9.410;2024-01-27T08:55:25;100971.44;;;0.35;100.00
71573;BME280;59408;51.032;9.410;2024-01-27T08:57:52;100971.59;;;0.40;100.00
71573;BME280;59408;51.032;9.410;2024-01-27T09:00:20;100962.63;;;0.46;100.00
71573;BME280;59408;51.032;9.410;2024-01-27T09:02:47;100953.31;;;0.49;100.00
71573;BME280;59408;51.032;9.410;2024-01-27T09:05:13;100965.59;;;0.57;100.00
71573;BME280;59408;51.032;9.410;2024-01-27T09:07:40;100965.16;;;0.60;100.00
71573;BME280;59408;51.032;9.410;2024-01-27T09:10:07;100971.25;;;0.67;100.00
71573;BME280;59408;51.032;9.410;2024-01-27T09:12:34;100962.06;;;0.74;100.00
71573;BME280;59408;51.032;9.410;2024-01-27T09:15:00;100959.53;;;0.79;100.00
71573;BME280;59408;51.032;9.410;2024-01-27T09:17:30;100961.22;;;0.92;100.00
71573;BME280;59408;51.032;9.410;2024-01-27T09:19:57;100963.34;;;1.02;100.00
71573;BME280;59408;51.032;9.410;2024-01-27T09:22:23;100965.97;;;1.08;100.00
71573;BME280;59408;51.032;9.410;2024-01-27T09:24:51;100971.34;;;1.08;100.00
71573;BME280;59408;51.032;9.410;2024-01-27T09:27:17;100970.84;;;1.11;100.00
71573;BME280;59408;51.032;9.410;2024-01-27T09:29:44;100968.31;;;1.16;100.00
71573;BME280;59408;51.032;9.410;2024-01-27T09:32:10;100975.06;;;1.19;100.00
71573;BME280;59408;51.032;9.410;2024-01-27T09:34:38;100967.28;;;1.29;100.00
71573;BME280;59408;51.032;9.410;2024-01-27T09:37:04;100963.09;;;1.33;100.00
71573;BME280;59408;51.032;9.410;2024-01-27T09:39:31;100961.94;;;1.41;100.00
71573;BME280;59408;51.032;9.410;2024-01-27T09:41:59;100970.72;;;1.48;100.00
71573;BME280;59408;51.032;9.410;2024-01-27T09:44:28;100966.75;;;1.50;100.00
71573;BME280;59408;51.032;9.410;2024-01-27T09:46:55;100963.13;;;1.56;100.00
71573;BME280;59408;51.032;9.410;2024-01-27T09:49:22;100964.53;;;1.59;100.00
71573;BME280;59408;51.032;9.410;2024-01-27T09:51:52;100970.13;;;1.57;100.00
71573;BME280;59408;51.032;9.410;2024-01-27T09:54:22;100970.03;;;1.64;100.00
71573;BME280;59408;51.032;9.410;2024-01-27T09:56:49;100983.38;;;1.71;100.00
71573;BME280;59408;51.032;9.410;2024-01-27T09:59:17;100985.34;;;1.75;100.00
71573;BME280;59408;51.032;9.410;2024-01-27T10:01:45;100984.19;;;1.83;100.00
71573;BME280;59408;51.032;9.410;2024-01-27T10:04:11;100990.66;;;1.82;100.00
71573;BME280;59408;51.032;9.410;2024-01-27T10:06:40;100978.50;;;1.91;100.00
71573;BME280;59408;51.032;9.410;2024-01-27T10:09:08;100977.53;;;1.97;100.00
71573;BME280;59408;51.032;9.410;2024-01-27T10:11:36;100978.22;;;2.04;100.00
71573;BME280;59408;51.032;9.410;2024-01-27T10:14:03;100990.63;;;2.05;100.00
71573;BME280;59408;51.032;9.410;2024-01-27T10:16:39;100996.25;;;2.15;100.00
71573;BME280;59408;51.032;9.410;2024-01-27T10:19:06;100990.88;;;2.15;100.00
71573;BME280;59408;51.032;9.410;2024-01-27T10:21:33;100999.41;;;2.24;100.00
71573;BME280;59408;51.032;9.410;2024-01-27T10:24:00;100986.75;;;2.36;100.00
71573;BME280;59408;51.032;9.410;2024-01-27T10:26:31;100982.44;;;2.35;100.00
71573;BME280;59408;51.032;9.410;2024-01-27T10:28:58;100985.56;;;2.44;100.00
71573;BME280;59408;51.032;9.410;2024-01-27T10:31:26;100990.13;;;2.55;100.00
71573;BME280;59408;51.032;9.410;2024-01-27T10:33:53;100994.44;;;2.56;100.00
71573;BME280;59408;51.032;9.410;2024-01-27T10:36:20;100989.41;;;2.59;100.00
71573;BME280;59408;51.032;9.410;2024-01-27T10:38:47;100996.66;;;2.59;100.00
71573;BME280;59408;51.032;9.410;2024-01-27T10:41:20;100991.63;;;2.62;100.00
71573;BME280;59408;51.032;9.410;2024-01-27T10:43:50;100983.16;;;2.70;100.00
71573;BME280;59408;51.032;9.410;2024-01-27T10:46:19;100986.75;;;2.76;100.00
71573;BME280;59408;51.032;9.410;2024-01-27T10:48:50;100986.50;;;2.89;100.00
71573;BME280;59408;51.032;9.410;2024-01-27T10:51:25;100984.09;;;3.04;99.57
71573;BME280;59408;51.032;9.410;2024-01-27T10:53:59;100984.19;;;3.09;99.50
71573;BME280;59408;51.032;9.410;2024-01-27T10:56:27;100981.09;;;3.18;98.69
71573;BME280;59408;51.032;9.410;2024-01-27T10:58:57;100988.84;;;3.14;98.82
71573;BME280;59408;51.032;9.410;2024-01-27T11:01:24;100990.16;;;3.28;96.91
71573;BME280;59408;51.032;9.410;2024-01-27T11:03:52;100988.81;;;3.42;97.91
71573;BME280;59408;51.032;9.410;2024-01-27T11:06:21;100982.03;;;3.40;96.14
71573;BME280;59408;51.032;9.410;2024-01-27T11:08:49;100980.25;;;3.45;95.89
71573;BME280;59408;51.032;9.410;2024-01-27T11:11:15;100980.47;;;3.44;95.57
71573;BME280;59408;51.032;9.410;2024-01-27T11:13:42;100976.38;;;3.41;95.08
71573;BME280;59408;51.032;9.410;2024-01-27T11:16:15;100976.41;;;3.58;96.01
71573;BME280;59408;51.032;9.410;2024-01-27T11:18:42;100975.84;;;3.73;96.20
71573;BME280;59408;51.032;9.410;2024-01-27T11:21:13;100982.38;;;3.77;93.68
71573;BME280;59408;51.032;9.410;2024-01-27T11:23:40;100984.16;;;3.88;93.06
71573;BME280;59408;51.032;9.410;2024-01-27T11:26:07;100986.44;;;3.96;93.66
71573;BME280;59408;51.032;9.410;2024-01-27T11:28:34;100985.97;;;3.99;94.36
71573;BME280;59408;51.032;9.410;2024-01-27T11:31:03;100983.91;;;4.06;92.68
71573;BME280;59408;51.032;9.410;2024-01-27T11:33:31;100982.97;;;4.17;93.25
71573;BME280;59408;51.032;9.410;2024-01-27T11:36:01;100976.53;;;4.18;91.13
71573;BME280;59408;51.032;9.410;2024-01-27T11:38:29;100969.91;;;4.09;89.96
71573;BME280;59408;51.032;9.410;2024-01-27T11:40:56;100984.69;;;4.23;91.40
71573;BME280;59408;51.032;9.410;2024-01-27T11:43:22;100979.59;;;4.27;90.12
71573;BME280;59408;51.032;9.410;2024-01-27T11:45:56;100974.84;;;4.34;90.38
71573;BME280;59408;51.032;9.410;2024-01-27T11:48:22;100974.41;;;4.42;90.00
71573;BME280;59408;51.032;9.410;2024-01-27T11:51:05;100966.63;;;4.46;90.21
71573;BME280;59408;51.032;9.410;2024-01-27T11:53:31;100967.25;;;4.53;88.59
71573;BME280;59408;51.032;9.410;2024-01-27T11:55:59;100951.06;;;4.58;88.12
71573;BME280;59408;51.032;9.410;2024-01-27T11:58:25;100939.91;;;4.71;88.54
71573;BME280;59408;51.032;9.410;2024-01-27T12:00:52;100940.13;;;4.70;88.07
71573;BME280;59408;51.032;9.410;2024-01-27T12:03:19;100936.75;;;4.79;88.58
71573;BME280;59408;51.032;9.410;2024-01-27T12:05:45;100938.13;;;4.82;86.67
71573;BME280;59408;51.032;9.410;2024-01-27T12:08:13;100944.59;;;4.81;86.58
71573;BME280;59408;51.032;9.410;2024-01-27T12:10:40;100946.75;;;5.00;87.37
71573;BME280;59408;51.032;9.410;2024-01-27T12:13:06;100951.88;;;5.02;85.54
71573;BME280;59408;51.032;9.410;2024-01-27T12:15:33;100950.41;;;4.89;84.71
71573;BME280;59408;51.032;9.410;2024-01-27T12:17:59;100937.16;;;4.93;84.75
71573;BME280;59408;51.032;9.410;2024-01-27T12:20:26;100939.63;;;4.94;83.54
71573;BME280;59408;51.032;9.410;2024-01-27T12:23:02;100933.00;;;5.07;84.24
71573;BME280;59408;51.032;9.410;2024-01-27T12:25:30;100949.84;;;5.14;84.15
71573;BME280;59408;51.032;9.410;2024-01-27T12:28:01;100952.78;;;5.13;82.40
71573;BME280;59408;51.032;9.410;2024-01-27T12:30:28;100954.78;;;5.22;83.17
71573;BME280;59408;51.032;9.410;2024-01-27T12:32:54;100962.63;;;5.24;82.70
71573;BME280;59408;51.032;9.410;2024-01-27T12:35:21;100959.34;;;5.17;82.33
71573;BME280;59408;51.032;9.410;2024-01-27T12:37:49;100965.97;;;5.04;82.36
71573;BME280;59408;51.032;9.410;2024-01-27T12:40:20;100968.91;;;5.03;83.65
71573;BME280;59408;51.032;9.410;2024-01-27T12:42:51;100964.28;;;5.25;84.94
71573;BME280;59408;51.032;9.410;2024-01-27T12:45:17;100958.06;;;5.24;83.05
71573;BME280;59408;51.032;9.410;2024-01-27T12:47:44;100953.00;;;5.33;83.30